Station Historical Data
Daily Summary for May 15, 2017 Units:  English    Metric   Both
« Previous Day
Next Day »
Daily Weekly Monthly Yearly Custom
  High: Low: Average:
Temperature: 86.2 °F 59.7 °F 72.5 °F
Dew Point: 62.0 °F 55.8 °F 58.3 °F
Humidity: 92% 36% 64%
Wind Speed: 1.0mph 0.0mph 0mph
Wind Gust: 5.0mph - -
Wind- - SSE
Pressure: 30.05 in 29.96 in -
Precipitation: 0.00 in    
Historical Graphs
 
 
Tabular Data for May 15, 2017
Time Temperature Dew Point Pressure Wind Wind Speed Wind Gust Humidity Rainfall Rate (Hourly) Conditions
00:00 63.7 °F 57.8 °F 29.99 in Calm     81% 0.00 in SCT
00:15 63.3 °F 57.7 °F 29.99 in Calm     82% 0.00 in SCT
00:30 63.1 °F 57.5 °F 29.99 in Calm     82% 0.00 in SCT
00:45 62.9 °F 58.0 °F 29.99 in Calm     84% 0.00 in SCT
01:00 62.6 °F 57.4 °F 29.99 in Calm     83% 0.00 in SCT
01:15 62.3 °F 57.4 °F 30.00 in Calm     84% 0.00 in SCT
01:30 62.1 °F 57.5 °F 29.99 in Calm     85% 0.00 in SCT
01:45 61.9 °F 57.3 °F 29.99 in Calm     85% 0.00 in SCT
02:00 61.7 °F 57.1 °F 29.99 in Calm     85% 0.00 in SCT
02:15 61.5 °F 57.3 °F 29.99 in Calm     86% 0.00 in SCT
02:30 61.3 °F 57.1 °F 30.00 in Calm     86% 0.00 in SCT
02:45 61.0 °F 57.1 °F 29.99 in Calm     87% 0.00 in SCT
03:00 60.7 °F 56.8 °F 29.99 in Calm     87% 0.00 in SCT
03:15 60.4 °F 56.5 °F 29.99 in Calm     87% 0.00 in SCT
03:30 59.7 °F 55.8 °F 29.99 in Calm     87% 0.00 in SCT
03:45 59.7 °F 55.8 °F 29.99 in Calm     87% 0.00 in SCT
04:00 59.7 °F 55.8 °F 30.00 in Calm     87% 0.00 in SCT
04:15 59.7 °F 55.8 °F 30.00 in Calm     87% 0.00 in SCT
04:30 59.7 °F 55.8 °F 30.00 in Calm     87% 0.00 in SCT
04:45 59.7 °F 55.8 °F 30.00 in Calm     87% 0.00 in SCT
05:00 59.7 °F 55.8 °F 30.00 in Calm     87% 0.00 in SCT
05:15 59.7 °F 55.8 °F 30.00 in Calm     87% 0.00 in SCT
05:30 59.7 °F 55.8 °F 30.00 in Calm     87% 0.00 in SCT
05:45 59.7 °F 55.8 °F 30.00 in Calm     87% 0.00 in SCT
06:00 59.7 °F 55.8 °F 30.00 in Calm     87% 0.00 in SCT
06:15 59.7 °F 55.8 °F 30.00 in Calm     87% 0.00 in SCT
06:30 59.7 °F 55.8 °F 30.00 in Calm     87% 0.00 in SCT
06:45 59.7 °F 55.8 °F 30.01 in Calm     87% 0.00 in SCT
07:00 59.7 °F 55.8 °F 30.02 in Calm     87% 0.00 in SCT
07:15 59.7 °F 55.8 °F 30.03 in Calm     87% 0.00 in SCT
07:30 59.7 °F 55.8 °F 30.03 in Calm     87% 0.00 in SCT
07:45 59.7 °F 57.4 °F 30.04 in Calm     92% 0.00 in SCT
08:00 60.8 °F 58.4 °F 30.04 in Calm     92% 0.00 in SCT
08:15 62.1 °F 59.7 °F 30.04 in Calm     92% 0.00 in SCT
08:30 63.8 °F 60.8 °F 30.04 in Calm     90% 0.00 in SCT
08:45 65.7 °F 61.7 °F 30.05 in Calm     87% 0.00 in SCT
09:00 67.7 °F 62.0 °F 30.04 in Calm   1.0 mph 82% 0.00 in SCT
09:15 69.8 °F 61.5 °F 30.05 in Calm   1.0 mph 75% 0.00 in SCT
09:30 71.7 °F 60.6 °F 30.05 in Calm   1.0 mph 68% 0.00 in SCT
09:45 73.4 °F 60.5 °F 30.05 in Calm   1.0 mph 64% 0.00 in SCT
10:00 74.9 °F 59.6 °F 30.05 in Calm   3.0 mph 59% 0.00 in SCT
10:15 76.7 °F 59.9 °F 30.05 in Calm   3.0 mph 56% 0.00 in SCT
10:30 78.0 °F 61.0 °F 30.05 in Calm   2.0 mph 56% 0.00 in SCT
10:45 78.3 °F 59.2 °F 30.05 in Calm   2.0 mph 52% 0.00 in SCT
11:00 78.9 °F 59.8 °F 30.05 in South 1.0 mph 2.0 mph 52% 0.00 in SCT
11:15 79.0 °F 59.9 °F 30.05 in Calm   3.0 mph 52% 0.00 in SCT
11:30 79.3 °F 59.6 °F 30.05 in Calm   2.0 mph 51% 0.00 in SCT
11:45 80.1 °F 58.0 °F 30.05 in NE 1.0 mph 3.0 mph 47% 0.00 in SCT
12:00 80.1 °F 58.6 °F 30.04 in Calm   2.0 mph 48% 0.00 in SCT
12:15 81.0 °F 59.4 °F 30.04 in Calm   2.0 mph 48% 0.00 in SCT
12:30 81.4 °F 59.8 °F 30.03 in Calm   1.0 mph 48% 0.00 in SCT
12:45 83.2 °F 60.2 °F 30.03 in Calm   2.0 mph 46% 0.00 in SCT
13:00 84.1 °F 59.8 °F 30.02 in Calm   3.0 mph 44% 0.00 in SCT
13:15 85.1 °F 59.5 °F 30.02 in Calm   1.0 mph 42% 0.00 in SCT
13:30 86.1 °F 59.7 °F 30.02 in Calm   1.0 mph 41% 0.00 in SCT
13:45 85.4 °F 56.9 °F 30.01 in Calm   3.0 mph 38% 0.00 in SCT
14:00 84.5 °F 58.2 °F 30.01 in Calm   5.0 mph 41% 0.00 in SCT
14:15 83.7 °F 56.8 °F 30.00 in Calm   3.0 mph 40% 0.00 in SCT
14:30 84.2 °F 57.9 °F 30.00 in Calm   3.0 mph 41% 0.00 in SCT
14:45 83.9 °F 57.7 °F 29.99 in NW 1.0 mph 2.0 mph 41% 0.00 in SCT
15:00 84.1 °F 57.2 °F 29.99 in Calm   2.0 mph 40% 0.00 in SCT
15:15 84.3 °F 57.3 °F 29.98 in Calm   3.0 mph 40% 0.00 in SCT
15:30 84.4 °F 57.4 °F 29.98 in Calm   3.0 mph 40% 0.00 in SCT
15:45 84.3 °F 58.0 °F 29.97 in Calm   1.0 mph 41% 0.00 in SCT
16:00 84.3 °F 58.7 °F 29.97 in Calm   1.0 mph 42% 0.00 in SCT
16:15 84.5 °F 56.8 °F 29.97 in Calm   3.0 mph 39% 0.00 in SCT
16:30 84.9 °F 59.2 °F 29.96 in Calm   1.0 mph 42% 0.00 in SCT
16:45 85.4 °F 58.3 °F 29.96 in Calm   2.0 mph 40% 0.00 in SCT
17:00 85.6 °F 57.1 °F 29.96 in ESE 1.0 mph 3.0 mph 38% 0.00 in SCT
17:15 86.2 °F 56.1 °F 29.96 in Calm   1.0 mph 36% 0.00 in SCT
17:30 85.2 °F 58.1 °F 29.96 in Calm   1.0 mph 40% 0.00 in SCT
17:45 84.7 °F 56.3 °F 29.96 in Calm   1.0 mph 38% 0.00 in SCT
18:00 84.3 °F 58.7 °F 29.96 in Calm   3.0 mph 42% 0.00 in SCT
18:15 84.7 °F 58.4 °F 29.96 in Calm   3.0 mph 41% 0.00 in SCT
18:30 83.5 °F 59.3 °F 29.96 in Calm   1.0 mph 44% 0.00 in SCT
18:45 82.5 °F 58.4 °F 29.97 in Calm   1.0 mph 44% 0.00 in SCT
19:00 81.8 °F 57.7 °F 29.97 in Calm   1.0 mph 44% 0.00 in SCT
19:15 81.0 °F 60.0 °F 29.97 in Calm   1.0 mph 49% 0.00 in SCT
19:30 80.0 °F 59.1 °F 29.98 in Calm   2.0 mph 49% 0.00 in SCT
19:45 79.1 °F 59.4 °F 29.98 in Calm   1.0 mph 51% 0.00 in SCT
20:00 78.2 °F 59.7 °F 29.98 in Calm     53% 0.00 in SCT
20:15 77.5 °F 59.6 °F 29.98 in Calm     54% 0.00 in SCT
20:30 76.9 °F 60.0 °F 29.99 in Calm     56% 0.00 in SCT
20:45 76.1 °F 59.3 °F 29.99 in Calm     56% 0.00 in SCT
21:00 75.4 °F 60.5 °F 29.99 in Calm     60% 0.00 in SCT
21:15 74.8 °F 60.4 °F 29.99 in Calm     61% 0.00 in SCT
21:30 74.3 °F 60.4 °F 30.00 in Calm     62% 0.00 in SCT
21:45 74.2 °F 59.4 °F 30.00 in Calm     60% 0.00 in SCT
22:00 74.1 °F 59.3 °F 30.00 in Calm     60% 0.00 in SCT
22:15 73.7 °F 59.9 °F 30.00 in Calm     62% 0.00 in SCT
22:30 73.0 °F 60.1 °F 30.00 in Calm     64% 0.00 in SCT
22:45 72.3 °F 59.9 °F 30.01 in Calm     65% 0.00 in SCT
23:00 71.5 °F 60.0 °F 30.01 in Calm     67% 0.00 in SCT
23:15 70.7 °F 60.0 °F 30.01 in Calm     69% 0.00 in SCT
23:30 70.1 °F 60.3 °F 30.01 in Calm     71% 0.00 in SCT
23:45 69.9 °F 60.5 °F 30.01 in Calm     72% 0.00 in SCT
Piedmont Bend
Compliments of Weather Underground - 2 mb